sensor_id;sensor_type;location;lat;lon;timestamp;temperature;humidity
3986;DHT22;2007;48.750;9.278;2022-12-20T00:01:54;12.30;50.00
3986;DHT22;2007;48.750;9.278;2022-12-20T00:04:22;12.30;50.00
3986;DHT22;2007;48.750;9.278;2022-12-20T00:06:50;12.40;50.10
3986;DHT22;2007;48.750;9.278;2022-12-20T00:09:19;12.30;50.00
3986;DHT22;2007;48.750;9.278;2022-12-20T00:11:47;12.30;49.90
3986;DHT22;2007;48.750;9.278;2022-12-20T00:14:15;12.40;50.10
3986;DHT22;2007;48.750;9.278;2022-12-20T00:16:42;12.40;50.00
3986;DHT22;2007;48.750;9.278;2022-12-20T00:19:11;12.40;50.10
3986;DHT22;2007;48.750;9.278;2022-12-20T00:21:39;12.40;50.00
3986;DHT22;2007;48.750;9.278;2022-12-20T00:24:07;12.40;50.10
3986;DHT22;2007;48.750;9.278;2022-12-20T00:26:37;12.40;50.10
3986;DHT22;2007;48.750;9.278;2022-12-20T00:29:05;12.40;50.00
3986;DHT22;2007;48.750;9.278;2022-12-20T00:31:33;12.40;50.00
3986;DHT22;2007;48.750;9.278;2022-12-20T00:34:02;12.40;50.00
3986;DHT22;2007;48.750;9.278;2022-12-20T00:36:31;12.40;50.00
3986;DHT22;2007;48.750;9.278;2022-12-20T00:39:00;12.40;50.00
3986;DHT22;2007;48.750;9.278;2022-12-20T00:41:30;12.40;50.00
3986;DHT22;2007;48.750;9.278;2022-12-20T00:44:00;12.40;50.00
3986;DHT22;2007;48.750;9.278;2022-12-20T00:46:28;12.40;50.00
3986;DHT22;2007;48.750;9.278;2022-12-20T00:48:57;12.40;50.00
3986;DHT22;2007;48.750;9.278;2022-12-20T00:51:27;12.40;50.00
3986;DHT22;2007;48.750;9.278;2022-12-20T00:53:55;12.40;50.00
3986;DHT22;2007;48.750;9.278;2022-12-20T00:56:23;12.40;50.00
3986;DHT22;2007;48.750;9.278;2022-12-20T00:58:51;12.50;50.10
3986;DHT22;2007;48.750;9.278;2022-12-20T01:01:23;12.50;50.10
3986;DHT22;2007;48.750;9.278;2022-12-20T01:03:52;12.40;49.90
3986;DHT22;2007;48.750;9.278;2022-12-20T01:06:21;12.50;50.00
3986;DHT22;2007;48.750;9.278;2022-12-20T01:08:50;12.50;50.10
3986;DHT22;2007;48.750;9.278;2022-12-20T01:11:20;12.50;50.10
3986;DHT22;2007;48.750;9.278;2022-12-20T01:13:50;12.50;50.10
3986;DHT22;2007;48.750;9.278;2022-12-20T01:16:23;12.50;50.10
3986;DHT22;2007;48.750;9.278;2022-12-20T01:18:52;12.50;50.00
3986;DHT22;2007;48.750;9.278;2022-12-20T01:21:22;12.50;50.10
3986;DHT22;2007;48.750;9.278;2022-12-20T01:23:51;12.50;50.10
3986;DHT22;2007;48.750;9.278;2022-12-20T01:26:21;12.50;50.00
3986;DHT22;2007;48.750;9.278;2022-12-20T01:28:52;12.50;50.00
3986;DHT22;2007;48.750;9.278;2022-12-20T01:31:21;12.50;50.00
3986;DHT22;2007;48.750;9.278;2022-12-20T01:33:51;12.50;50.00
3986;DHT22;2007;48.750;9.278;2022-12-20T01:36:21;12.50;50.00
3986;DHT22;2007;48.750;9.278;2022-12-20T01:38:54;12.50;50.00
3986;DHT22;2007;48.750;9.278;2022-12-20T01:41:23;12.50;50.00
3986;DHT22;2007;48.750;9.278;2022-12-20T01:43:53;12.50;50.00
3986;DHT22;2007;48.750;9.278;2022-12-20T01:46:23;12.50;50.00
3986;DHT22;2007;48.750;9.278;2022-12-20T01:48:55;12.50;50.00
3986;DHT22;2007;48.750;9.278;2022-12-20T01:51:25;12.50;50.60
3986;DHT22;2007;48.750;9.278;2022-12-20T01:53:57;12.50;50.00
3986;DHT22;2007;48.750;9.278;2022-12-20T01:56:26;12.60;50.00
3986;DHT22;2007;48.750;9.278;2022-12-20T01:58:55;12.60;50.10
3986;DHT22;2007;48.750;9.278;2022-12-20T02:01:24;12.60;50.00
3986;DHT22;2007;48.750;9.278;2022-12-20T02:03:54;12.60;50.00
3986;DHT22;2007;48.750;9.278;2022-12-20T02:06:24;12.60;50.00
3986;DHT22;2007;48.750;9.278;2022-12-20T02:08:56;12.60;50.00
3986;DHT22;2007;48.750;9.278;2022-12-20T02:11:40;12.60;50.00
3986;DHT22;2007;48.750;9.278;2022-12-20T02:14:16;12.60;50.00
3986;DHT22;2007;48.750;9.278;2022-12-20T02:16:51;12.60;50.00
3986;DHT22;2007;48.750;9.278;2022-12-20T02:19:51;12.60;50.00
3986;DHT22;2007;48.750;9.278;2022-12-20T02:22:26;12.60;50.00
3986;DHT22;2007;48.750;9.278;2022-12-20T02:28:00;12.60;50.00
3986;DHT22;2007;48.750;9.278;2022-12-20T02:30:34;12.60;50.00
3986;DHT22;2007;48.750;9.278;2022-12-20T02:33:07;12.60;50.00
3986;DHT22;2007;48.750;9.278;2022-12-20T02:35:38;12.60;50.00
3986;DHT22;2007;48.750;9.278;2022-12-20T02:38:24;12.60;50.00
3986;DHT22;2007;48.750;9.278;2022-12-20T02:40:55;12.60;50.00
3986;DHT22;2007;48.750;9.278;2022-12-20T02:43:26;12.60;50.00
3986;DHT22;2007;48.750;9.278;2022-12-20T02:46:14;12.60;50.00
3986;DHT22;2007;48.750;9.278;2022-12-20T02:48:45;12.60;50.00
3986;DHT22;2007;48.750;9.278;2022-12-20T02:51:15;12.60;50.00
3986;DHT22;2007;48.750;9.278;2022-12-20T02:53:44;12.70;50.10
3986;DHT22;2007;48.750;9.278;2022-12-20T02:56:17;12.60;50.00
3986;DHT22;2007;48.750;9.278;2022-12-20T02:58:49;12.70;50.10
3986;DHT22;2007;48.750;9.278;2022-12-20T03:01:23;12.70;50.10
3986;DHT22;2007;48.750;9.278;2022-12-20T03:03:52;12.70;50.10
3986;DHT22;2007;48.750;9.278;2022-12-20T03:06:21;12.70;50.10
3986;DHT22;2007;48.750;9.278;2022-12-20T03:08:48;12.70;50.00
3986;DHT22;2007;48.750;9.278;2022-12-20T03:11:16;12.70;50.10
3986;DHT22;2007;48.750;9.278;2022-12-20T03:13:45;12.70;50.10
3986;DHT22;2007;48.750;9.278;2022-12-20T03:16:13;12.70;50.10
3986;DHT22;2007;48.750;9.278;2022-12-20T03:18:43;12.70;50.10
3986;DHT22;2007;48.750;9.278;2022-12-20T03:21:12;12.70;50.10
3986;DHT22;2007;48.750;9.278;2022-12-20T03:23:40;12.70;50.00
3986;DHT22;2007;48.750;9.278;2022-12-20T03:26:07;12.70;50.00
3986;DHT22;2007;48.750;9.278;2022-12-20T03:28:35;12.70;50.00
3986;DHT22;2007;48.750;9.278;2022-12-20T03:31:03;12.70;50.10
3986;DHT22;2007;48.750;9.278;2022-12-20T03:33:31;12.70;50.00
3986;DHT22;2007;48.750;9.278;2022-12-20T03:36:01;12.70;50.00
3986;DHT22;2007;48.750;9.278;2022-12-20T03:38:28;12.70;50.10
3986;DHT22;2007;48.750;9.278;2022-12-20T03:40:56;12.70;50.00
3986;DHT22;2007;48.750;9.278;2022-12-20T03:43:24;12.70;50.00
3986;DHT22;2007;48.750;9.278;2022-12-20T03:45:52;12.70;50.00
3986;DHT22;2007;48.750;9.278;2022-12-20T03:48:20;12.70;50.00
3986;DHT22;2007;48.750;9.278;2022-12-20T03:50:48;12.70;50.10
3986;DHT22;2007;48.750;9.278;2022-12-20T03:53:17;12.70;50.10
3986;DHT22;2007;48.750;9.278;2022-12-20T03:55:45;12.70;50.00
3986;DHT22;2007;48.750;9.278;2022-12-20T03:58:13;12.70;50.00
3986;DHT22;2007;48.750;9.278;2022-12-20T04:00:41;12.70;50.00
3986;DHT22;2007;48.750;9.278;2022-12-20T04:03:09;12.70;50.00
3986;DHT22;2007;48.750;9.278;2022-12-20T04:05:38;12.70;50.00
3986;DHT22;2007;48.750;9.278;2022-12-20T04:08:05;12.70;50.00
3986;DHT22;2007;48.750;9.278;2022-12-20T04:10:35;12.80;50.10
3986;DHT22;2007;48.750;9.278;2022-12-20T04:13:24;12.70;50.00
3986;DHT22;2007;48.750;9.278;2022-12-20T04:15:51;12.70;50.00
3986;DHT22;2007;48.750;9.278;2022-12-20T04:18:26;12.80;50.10
3986;DHT22;2007;48.750;9.278;2022-12-20T04:20:54;12.80;50.10
3986;DHT22;2007;48.750;9.278;2022-12-20T04:23:22;12.80;50.10
3986;DHT22;2007;48.750;9.278;2022-12-20T04:25:51;12.80;50.10
3986;DHT22;2007;48.750;9.278;2022-12-20T04:28:19;12.80;50.10
3986;DHT22;2007;48.750;9.278;2022-12-20T04:30:47;12.80;50.10
3986;DHT22;2007;48.750;9.278;2022-12-20T04:33:14;12.80;50.10
3986;DHT22;2007;48.750;9.278;2022-12-20T04:35:42;12.80;50.10
3986;DHT22;2007;48.750;9.278;2022-12-20T04:38:10;12.70;50.00
3986;DHT22;2007;48.750;9.278;2022-12-20T04:40:38;12.80;50.10
3986;DHT22;2007;48.750;9.278;2022-12-20T04:43:07;12.80;50.10
3986;DHT22;2007;48.750;9.278;2022-12-20T04:45:35;12.80;50.10
3986;DHT22;2007;48.750;9.278;2022-12-20T04:48:03;12.80;50.10
3986;DHT22;2007;48.750;9.278;2022-12-20T04:50:52;12.80;50.10
3986;DHT22;2007;48.750;9.278;2022-12-20T04:53:21;12.80;50.80
3986;DHT22;2007;48.750;9.278;2022-12-20T04:56:07;12.80;50.10
3986;DHT22;2007;48.750;9.278;2022-12-20T04:58:36;12.80;50.10
3986;DHT22;2007;48.750;9.278;2022-12-20T05:01:04;12.80;50.10
3986;DHT22;2007;48.750;9.278;2022-12-20T05:03:32;12.80;50.10
3986;DHT22;2007;48.750;9.278;2022-12-20T05:06:01;12.80;50.10
3986;DHT22;2007;48.750;9.278;2022-12-20T05:08:28;12.80;50.10
3986;DHT22;2007;48.750;9.278;2022-12-20T05:10:56;12.80;50.10
3986;DHT22;2007;48.750;9.278;2022-12-20T05:13:24;12.80;50.10
3986;DHT22;2007;48.750;9.278;2022-12-20T05:15:54;12.80;50.10
3986;DHT22;2007;48.750;9.278;2022-12-20T05:18:23;12.80;50.10
3986;DHT22;2007;48.750;9.278;2022-12-20T05:20:54;12.80;50.10
3986;DHT22;2007;48.750;9.278;2022-12-20T05:23:36;12.80;50.10
3986;DHT22;2007;48.750;9.278;2022-12-20T05:26:22;12.80;50.10
3986;DHT22;2007;48.750;9.278;2022-12-20T05:28:51;12.80;50.10
3986;DHT22;2007;48.750;9.278;2022-12-20T05:31:20;12.80;50.10
3986;DHT22;2007;48.750;9.278;2022-12-20T05:33:48;12.80;50.10
3986;DHT22;2007;48.750;9.278;2022-12-20T05:36:16;12.80;50.10
3986;DHT22;2007;48.750;9.278;2022-12-20T05:38:44;12.80;50.10
3986;DHT22;2007;48.750;9.278;2022-12-20T05:41:12;12.80;50.10
3986;DHT22;2007;48.750;9.278;2022-12-20T05:43:40;12.80;50.10
3986;DHT22;2007;48.750;9.278;2022-12-20T05:46:09;12.80;50.10
3986;DHT22;2007;48.750;9.278;2022-12-20T05:48:38;12.90;50.20
3986;DHT22;2007;48.750;9.278;2022-12-20T05:51:06;12.80;50.10
3986;DHT22;2007;48.750;9.278;2022-12-20T05:53:35;12.90;50.20
3986;DHT22;2007;48.750;9.278;2022-12-20T05:56:03;12.90;50.20
3986;DHT22;2007;48.750;9.278;2022-12-20T05:58:31;12.90;50.20
3986;DHT22;2007;48.750;9.278;2022-12-20T06:00:59;12.90;50.20
3986;DHT22;2007;48.750;9.278;2022-12-20T06:03:27;12.90;50.20
3986;DHT22;2007;48.750;9.278;2022-12-20T06:05:58;12.90;50.10
3986;DHT22;2007;48.750;9.278;2022-12-20T06:08:26;12.90;50.10
3986;DHT22;2007;48.750;9.278;2022-12-20T06:10:54;12.90;50.20
3986;DHT22;2007;48.750;9.278;2022-12-20T06:13:22;12.90;50.10
3986;DHT22;2007;48.750;9.278;2022-12-20T06:15:50;12.90;50.20
3986;DHT22;2007;48.750;9.278;2022-12-20T06:18:18;12.90;50.10
3986;DHT22;2007;48.750;9.278;2022-12-20T06:20:48;12.90;50.20
3986;DHT22;2007;48.750;9.278;2022-12-20T06:23:18;12.90;50.20
3986;DHT22;2007;48.750;9.278;2022-12-20T06:25:46;12.90;50.20
3986;DHT22;2007;48.750;9.278;2022-12-20T06:28:15;12.90;50.20
3986;DHT22;2007;48.750;9.278;2022-12-20T06:30:51;12.90;50.10
3986;DHT22;2007;48.750;9.278;2022-12-20T06:33:19;12.90;50.20
3986;DHT22;2007;48.750;9.278;2022-12-20T06:35:48;12.90;50.20
3986;DHT22;2007;48.750;9.278;2022-12-20T06:38:18;12.90;50.20
3986;DHT22;2007;48.750;9.278;2022-12-20T06:40:45;12.90;50.20
3986;DHT22;2007;48.750;9.278;2022-12-20T06:43:13;12.90;50.20
3986;DHT22;2007;48.750;9.278;2022-12-20T06:45:42;12.90;50.50
3986;DHT22;2007;48.750;9.278;2022-12-20T06:48:10;12.90;50.20
3986;DHT22;2007;48.750;9.278;2022-12-20T06:50:38;12.90;50.20
3986;DHT22;2007;48.750;9.278;2022-12-20T06:53:06;12.90;50.20
3986;DHT22;2007;48.750;9.278;2022-12-20T06:55:36;12.90;50.20
3986;DHT22;2007;48.750;9.278;2022-12-20T06:58:05;12.90;50.10
3986;DHT22;2007;48.750;9.278;2022-12-20T07:00:33;12.90;50.10
3986;DHT22;2007;48.750;9.278;2022-12-20T07:03:01;12.90;50.20
3986;DHT22;2007;48.750;9.278;2022-12-20T07:05:29;12.90;50.10
3986;DHT22;2007;48.750;9.278;2022-12-20T07:07:57;12.90;50.10
3986;DHT22;2007;48.750;9.278;2022-12-20T07:10:25;12.90;50.10
3986;DHT22;2007;48.750;9.278;2022-12-20T07:12:54;12.90;50.20
3986;DHT22;2007;48.750;9.278;2022-12-20T07:15:22;12.90;50.10
3986;DHT22;2007;48.750;9.278;2022-12-20T07:17:51;12.90;50.10
3986;DHT22;2007;48.750;9.278;2022-12-20T07:20:19;12.90;50.20
3986;DHT22;2007;48.750;9.278;2022-12-20T07:22:47;12.90;50.20
3986;DHT22;2007;48.750;9.278;2022-12-20T07:25:15;12.90;50.20
3986;DHT22;2007;48.750;9.278;2022-12-20T07:27:45;12.90;50.10
3986;DHT22;2007;48.750;9.278;2022-12-20T07:30:15;12.90;50.10
3986;DHT22;2007;48.750;9.278;2022-12-20T07:32:44;12.90;50.10
3986;DHT22;2007;48.750;9.278;2022-12-20T07:35:13;12.90;50.20
3986;DHT22;2007;48.750;9.278;2022-12-20T07:37:41;12.90;50.20
3986;DHT22;2007;48.750;9.278;2022-12-20T07:40:11;12.90;50.20
3986;DHT22;2007;48.750;9.278;2022-12-20T07:42:40;12.90;50.10
3986;DHT22;2007;48.750;9.278;2022-12-20T07:45:15;12.90;50.20
3986;DHT22;2007;48.750;9.278;2022-12-20T07:47:43;12.90;50.20
3986;DHT22;2007;48.750;9.278;2022-12-20T07:50:11;12.90;50.20
3986;DHT22;2007;48.750;9.278;2022-12-20T07:52:42;12.90;50.20
3986;DHT22;2007;48.750;9.278;2022-12-20T07:55:12;12.90;50.20
3986;DHT22;2007;48.750;9.278;2022-12-20T07:57:43;12.90;50.20
3986;DHT22;2007;48.750;9.278;2022-12-20T08:02:49;12.90;50.20
3986;DHT22;2007;48.750;9.278;2022-12-20T08:05:19;12.90;50.20
3986;DHT22;2007;48.750;9.278;2022-12-20T08:07:47;12.90;50.20
3986;DHT22;2007;48.750;9.278;2022-12-20T08:10:24;13.00;50.30
3986;DHT22;2007;48.750;9.278;2022-12-20T08:12:52;12.90;50.20
3986;DHT22;2007;48.750;9.278;2022-12-20T08:15:21;13.00;50.30
3986;DHT22;2007;48.750;9.278;2022-12-20T08:17:50;13.00;50.30
3986;DHT22;2007;48.750;9.278;2022-12-20T08:20:18;13.00;50.30
3986;DHT22;2007;48.750;9.278;2022-12-20T08:22:46;13.00;50.30
3986;DHT22;2007;48.750;9.278;2022-12-20T08:25:14;13.00;50.30
3986;DHT22;2007;48.750;9.278;2022-12-20T08:27:42;13.00;50.30
3986;DHT22;2007;48.750;9.278;2022-12-20T08:30:11;13.00;50.30
3986;DHT22;2007;48.750;9.278;2022-12-20T08:32:39;13.00;50.30
3986;DHT22;2007;48.750;9.278;2022-12-20T08:35:08;13.00;50.30
3986;DHT22;2007;48.750;9.278;2022-12-20T08:37:36;13.00;50.30
3986;DHT22;2007;48.750;9.278;2022-12-20T08:40:06;13.00;50.30
3986;DHT22;2007;48.750;9.278;2022-12-20T08:42:35;13.00;50.30
3986;DHT22;2007;48.750;9.278;2022-12-20T08:45:03;13.00;50.30
3986;DHT22;2007;48.750;9.278;2022-12-20T08:47:32;13.00;50.30
3986;DHT22;2007;48.750;9.278;2022-12-20T08:49:59;13.00;50.30
3986;DHT22;2007;48.750;9.278;2022-12-20T08:52:29;13.00;50.30
3986;DHT22;2007;48.750;9.278;2022-12-20T08:54:57;13.00;50.30
3986;DHT22;2007;48.750;9.278;2022-12-20T08:57:27;13.00;50.40
3986;DHT22;2007;48.750;9.278;2022-12-20T08:59:55;13.00;50.30
3986;DHT22;2007;48.750;9.278;2022-12-20T09:02:23;13.00;50.30
3986;DHT22;2007;48.750;9.278;2022-12-20T09:04:51;13.00;50.40
3986;DHT22;2007;48.750;9.278;2022-12-20T09:07:19;13.00;50.30
3986;DHT22;2007;48.750;9.278;2022-12-20T09:09:48;13.00;50.30
3986;DHT22;2007;48.750;9.278;2022-12-20T09:12:16;13.00;50.30
3986;DHT22;2007;48.750;9.278;2022-12-20T09:14:44;13.00;50.30
3986;DHT22;2007;48.750;9.278;2022-12-20T09:17:12;13.00;50.30
3986;DHT22;2007;48.750;9.278;2022-12-20T09:19:40;13.00;50.30
3986;DHT22;2007;48.750;9.278;2022-12-20T09:22:08;13.00;50.30
3986;DHT22;2007;48.750;9.278;2022-12-20T09:24:36;13.00;50.30
3986;DHT22;2007;48.750;9.278;2022-12-20T09:27:06;13.00;50.30
3986;DHT22;2007;48.750;9.278;2022-12-20T09:29:33;13.00;50.30
3986;DHT22;2007;48.750;9.278;2022-12-20T09:32:02;13.00;50.30
3986;DHT22;2007;48.750;9.278;2022-12-20T09:34:29;13.00;50.30
3986;DHT22;2007;48.750;9.278;2022-12-20T09:36:57;13.10;50.40
3986;DHT22;2007;48.750;9.278;2022-12-20T09:39:25;13.10;50.40
3986;DHT22;2007;48.750;9.278;2022-12-20T09:41:53;13.10;50.40
3986;DHT22;2007;48.750;9.278;2022-12-20T09:44:26;13.10;50.40
3986;DHT22;2007;48.750;9.278;2022-12-20T09:46:58;13.10;50.40
3986;DHT22;2007;48.750;9.278;2022-12-20T09:49:38;13.10;50.40
3986;DHT22;2007;48.750;9.278;2022-12-20T09:52:26;13.10;51.00
3986;DHT22;2007;48.750;9.278;2022-12-20T09:55:05;13.10;50.40
3986;DHT22;2007;48.750;9.278;2022-12-20T09:57:46;13.10;50.40
3986;DHT22;2007;48.750;9.278;2022-12-20T10:00:18;13.10;50.40
3986;DHT22;2007;48.750;9.278;2022-12-20T10:02:46;13.10;50.40
3986;DHT22;2007;48.750;9.278;2022-12-20T10:05:41;13.10;50.40
3986;DHT22;2007;48.750;9.278;2022-12-20T10:08:15;13.10;50.40
3986;DHT22;2007;48.750;9.278;2022-12-20T10:10:53;13.10;50.40
3986;DHT22;2007;48.750;9.278;2022-12-20T10:13:34;13.10;50.40
3986;DHT22;2007;48.750;9.278;2022-12-20T10:16:16;13.10;50.40
3986;DHT22;2007;48.750;9.278;2022-12-20T10:18:57;13.10;51.00
3986;DHT22;2007;48.750;9.278;2022-12-20T10:21:37;13.10;50.40
3986;DHT22;2007;48.750;9.278;2022-12-20T10:24:12;13.10;50.40
3986;DHT22;2007;48.750;9.278;2022-12-20T10:26:41;13.10;50.40
3986;DHT22;2007;48.750;9.278;2022-12-20T10:29:09;13.10;50.40
3986;DHT22;2007;48.750;9.278;2022-12-20T10:31:39;13.10;50.40
3986;DHT22;2007;48.750;9.278;2022-12-20T10:34:07;13.10;50.40
3986;DHT22;2007;48.750;9.278;2022-12-20T10:36:36;13.20;50.40
3986;DHT22;2007;48.750;9.278;2022-12-20T10:39:06;13.20;50.40
3986;DHT22;2007;48.750;9.278;2022-12-20T10:41:47;13.20;50.50
3986;DHT22;2007;48.750;9.278;2022-12-20T10:44:19;13.10;50.40
3986;DHT22;2007;48.750;9.278;2022-12-20T10:46:54;13.20;50.50
3986;DHT22;2007;48.750;9.278;2022-12-20T10:49:28;13.20;50.40
3986;DHT22;2007;48.750;9.278;2022-12-20T10:51:58;13.20;50.40
3986;DHT22;2007;48.750;9.278;2022-12-20T10:54:32;13.20;50.40
3986;DHT22;2007;48.750;9.278;2022-12-20T10:57:03;13.20;50.50
3986;DHT22;2007;48.750;9.278;2022-12-20T10:59:44;13.20;50.40
3986;DHT22;2007;48.750;9.278;2022-12-20T11:02:24;13.20;50.40
3986;DHT22;2007;48.750;9.278;2022-12-20T11:05:03;13.20;50.40
3986;DHT22;2007;48.750;9.278;2022-12-20T11:07:52;13.20;50.40
3986;DHT22;2007;48.750;9.278;2022-12-20T11:10:40;13.20;50.40
3986;DHT22;2007;48.750;9.278;2022-12-20T11:13:19;13.20;50.40
3986;DHT22;2007;48.750;9.278;2022-12-20T11:15:49;13.20;50.40
3986;DHT22;2007;48.750;9.278;2022-12-20T11:18:25;13.20;51.10
3986;DHT22;2007;48.750;9.278;2022-12-20T11:21:02;13.20;50.40
3986;DHT22;2007;48.750;9.278;2022-12-20T11:23:44;13.20;50.40
3986;DHT22;2007;48.750;9.278;2022-12-20T11:26:25;13.20;50.40
3986;DHT22;2007;48.750;9.278;2022-12-20T11:29:06;13.20;50.40
3986;DHT22;2007;48.750;9.278;2022-12-20T11:31:47;13.20;50.40
3986;DHT22;2007;48.750;9.278;2022-12-20T11:34:32;13.20;50.40
3986;DHT22;2007;48.750;9.278;2022-12-20T11:37:16;13.20;50.40
3986;DHT22;2007;48.750;9.278;2022-12-20T11:39:55;13.20;50.40
3986;DHT22;2007;48.750;9.278;2022-12-20T11:42:34;13.30;50.50
3986;DHT22;2007;48.750;9.278;2022-12-20T11:45:11;13.20;50.40
3986;DHT22;2007;48.750;9.278;2022-12-20T11:51:01;13.30;50.50
3986;DHT22;2007;48.750;9.278;2022-12-20T11:53:35;13.30;50.50
3986;DHT22;2007;48.750;9.278;2022-12-20T11:56:08;13.30;50.50
3986;DHT22;2007;48.750;9.278;2022-12-20T11:58:48;13.30;50.50
3986;DHT22;2007;48.750;9.278;2022-12-20T12:01:20;13.30;50.50
3986;DHT22;2007;48.750;9.278;2022-12-20T12:03:58;13.30;50.50
3986;DHT22;2007;48.750;9.278;2022-12-20T12:06:31;13.30;50.50
3986;DHT22;2007;48.750;9.278;2022-12-20T12:09:08;13.30;50.50
3986;DHT22;2007;48.750;9.278;2022-12-20T12:11:41;13.30;50.50
3986;DHT22;2007;48.750;9.278;2022-12-20T12:14:41;13.30;50.50
3986;DHT22;2007;48.750;9.278;2022-12-20T12:17:15;13.30;50.50
3986;DHT22;2007;48.750;9.278;2022-12-20T12:19:47;13.30;50.80
3986;DHT22;2007;48.750;9.278;2022-12-20T12:22:21;13.30;50.50
3986;DHT22;2007;48.750;9.278;2022-12-20T12:24:54;13.30;50.50
3986;DHT22;2007;48.750;9.278;2022-12-20T12:27:26;13.30;50.50
3986;DHT22;2007;48.750;9.278;2022-12-20T12:29:56;13.30;50.50
3986;DHT22;2007;48.750;9.278;2022-12-20T12:32:28;13.30;50.50
3986;DHT22;2007;48.750;9.278;2022-12-20T12:35:10;13.30;50.50
3986;DHT22;2007;48.750;9.278;2022-12-20T12:37:54;13.30;50.50
3986;DHT22;2007;48.750;9.278;2022-12-20T12:40:49;13.30;50.50
3986;DHT22;2007;48.750;9.278;2022-12-20T12:43:46;13.30;50.50
3986;DHT22;2007;48.750;9.278;2022-12-20T12:46:17;13.30;50.50
3986;DHT22;2007;48.750;9.278;2022-12-20T12:48:51;13.30;50.50
3986;DHT22;2007;48.750;9.278;2022-12-20T12:51:24;13.30;50.50
3986;DHT22;2007;48.750;9.278;2022-12-20T12:54:02;13.30;50.50
3986;DHT22;2007;48.750;9.278;2022-12-20T12:56:38;13.40;50.60
3986;DHT22;2007;48.750;9.278;2022-12-20T12:59:23;13.40;50.60
3986;DHT22;2007;48.750;9.278;2022-12-20T13:01:52;13.40;50.60
3986;DHT22;2007;48.750;9.278;2022-12-20T13:04:24;13.40;50.60
3986;DHT22;2007;48.750;9.278;2022-12-20T13:07:00;13.40;50.60
3986;DHT22;2007;48.750;9.278;2022-12-20T13:09:40;13.40;50.60
3986;DHT22;2007;48.750;9.278;2022-12-20T13:15:51;13.40;50.60
3986;DHT22;2007;48.750;9.278;2022-12-20T13:18:26;13.40;50.60
3986;DHT22;2007;48.750;9.278;2022-12-20T13:27:20;13.40;50.60
3986;DHT22;2007;48.750;9.278;2022-12-20T13:30:14;13.40;50.60
3986;DHT22;2007;48.750;9.278;2022-12-20T13:33:22;13.40;50.60
3986;DHT22;2007;48.750;9.278;2022-12-20T13:36:02;13.40;50.60
3986;DHT22;2007;48.750;9.278;2022-12-20T13:38:55;13.40;50.60
3986;DHT22;2007;48.750;9.278;2022-12-20T13:41:36;13.40;50.60
3986;DHT22;2007;48.750;9.278;2022-12-20T13:44:27;13.40;50.60
3986;DHT22;2007;48.750;9.278;2022-12-20T13:49:44;13.40;50.60
3986;DHT22;2007;48.750;9.278;2022-12-20T13:52:26;13.40;50.60
3986;DHT22;2007;48.750;9.278;2022-12-20T13:54:57;13.40;50.60
3986;DHT22;2007;48.750;9.278;2022-12-20T13:57:29;13.40;50.60
3986;DHT22;2007;48.750;9.278;2022-12-20T14:00:03;13.40;50.60
3986;DHT22;2007;48.750;9.278;2022-12-20T14:02:38;13.40;50.60
3986;DHT22;2007;48.750;9.278;2022-12-20T14:05:14;13.40;50.60
3986;DHT22;2007;48.750;9.278;2022-12-20T14:07:46;13.40;50.60
3986;DHT22;2007;48.750;9.278;2022-12-20T14:10:19;13.40;50.60
3986;DHT22;2007;48.750;9.278;2022-12-20T14:12:48;13.50;50.70
3986;DHT22;2007;48.750;9.278;2022-12-20T14:15:23;13.50;50.70
3986;DHT22;2007;48.750;9.278;2022-12-20T14:17:51;13.50;50.70
3986;DHT22;2007;48.750;9.278;2022-12-20T14:20:23;13.50;50.70
3986;DHT22;2007;48.750;9.278;2022-12-20T14:22:55;13.50;50.70
3986;DHT22;2007;48.750;9.278;2022-12-20T14:25:40;13.50;50.70
3986;DHT22;2007;48.750;9.278;2022-12-20T14:28:17;13.50;50.70
3986;DHT22;2007;48.750;9.278;2022-12-20T14:30:55;13.50;50.70
3986;DHT22;2007;48.750;9.278;2022-12-20T14:33:35;13.50;50.70
3986;DHT22;2007;48.750;9.278;2022-12-20T14:36:08;13.50;50.70
3986;DHT22;2007;48.750;9.278;2022-12-20T14:38:38;13.50;50.70
3986;DHT22;2007;48.750;9.278;2022-12-20T14:41:31;13.50;50.70
3986;DHT22;2007;48.750;9.278;2022-12-20T14:44:03;13.50;50.70
3986;DHT22;2007;48.750;9.278;2022-12-20T14:46:46;13.50;50.70
3986;DHT22;2007;48.750;9.278;2022-12-20T14:49:19;13.50;50.70
3986;DHT22;2007;48.750;9.278;2022-12-20T14:51:49;13.50;50.70
3986;DHT22;2007;48.750;9.278;2022-12-20T14:54:19;13.50;50.80
3986;DHT22;2007;48.750;9.278;2022-12-20T14:57:10;13.50;50.70
3986;DHT22;2007;48.750;9.278;2022-12-20T14:59:38;13.50;50.70
3986;DHT22;2007;48.750;9.278;2022-12-20T15:02:29;13.50;50.70
3986;DHT22;2007;48.750;9.278;2022-12-20T15:05:00;13.50;50.70
3986;DHT22;2007;48.750;9.278;2022-12-20T15:07:33;13.50;50.70
3986;DHT22;2007;48.750;9.278;2022-12-20T15:10:01;13.50;50.70
3986;DHT22;2007;48.750;9.278;2022-12-20T15:12:29;13.50;50.70
3986;DHT22;2007;48.750;9.278;2022-12-20T15:15:00;13.50;50.70
3986;DHT22;2007;48.750;9.278;2022-12-20T15:17:49;13.50;50.70
3986;DHT22;2007;48.750;9.278;2022-12-20T15:20:17;13.50;50.70
3986;DHT22;2007;48.750;9.278;2022-12-20T15:22:46;13.50;50.80
3986;DHT22;2007;48.750;9.278;2022-12-20T15:25:15;13.50;50.70
3986;DHT22;2007;48.750;9.278;2022-12-20T15:27:44;13.50;50.70
3986;DHT22;2007;48.750;9.278;2022-12-20T15:30:12;13.50;50.70
3986;DHT22;2007;48.750;9.278;2022-12-20T15:32:41;13.50;50.70
3986;DHT22;2007;48.750;9.278;2022-12-20T15:35:22;13.50;50.70
3986;DHT22;2007;48.750;9.278;2022-12-20T15:37:51;13.50;50.70
3986;DHT22;2007;48.750;9.278;2022-12-20T15:40:19;13.60;50.80
3986;DHT22;2007;48.750;9.278;2022-12-20T15:42:47;13.60;50.80
3986;DHT22;2007;48.750;9.278;2022-12-20T15:45:15;13.60;50.80
3986;DHT22;2007;48.750;9.278;2022-12-20T15:47:43;13.60;50.80
3986;DHT22;2007;48.750;9.278;2022-12-20T15:50:11;13.60;50.80
3986;DHT22;2007;48.750;9.278;2022-12-20T15:52:40;13.60;50.80
3986;DHT22;2007;48.750;9.278;2022-12-20T15:55:10;13.60;50.80
3986;DHT22;2007;48.750;9.278;2022-12-20T15:57:37;13.60;50.80
3986;DHT22;2007;48.750;9.278;2022-12-20T16:00:06;13.60;50.80
3986;DHT22;2007;48.750;9.278;2022-12-20T16:02:35;13.60;50.80
3986;DHT22;2007;48.750;9.278;2022-12-20T16:05:03;13.60;50.80
3986;DHT22;2007;48.750;9.278;2022-12-20T16:07:31;13.60;50.80
3986;DHT22;2007;48.750;9.278;2022-12-20T16:10:01;13.60;50.90
3986;DHT22;2007;48.750;9.278;2022-12-20T16:12:32;13.60;50.80
3986;DHT22;2007;48.750;9.278;2022-12-20T16:15:00;13.60;50.80
3986;DHT22;2007;48.750;9.278;2022-12-20T16:17:28;13.60;50.80
3986;DHT22;2007;48.750;9.278;2022-12-20T16:19:56;13.60;50.80
3986;DHT22;2007;48.750;9.278;2022-12-20T16:22:24;13.60;50.80
3986;DHT22;2007;48.750;9.278;2022-12-20T16:24:52;13.60;50.80
3986;DHT22;2007;48.750;9.278;2022-12-20T16:27:22;13.60;50.80
3986;DHT22;2007;48.750;9.278;2022-12-20T16:29:49;13.60;50.80
3986;DHT22;2007;48.750;9.278;2022-12-20T16:32:19;13.60;50.80
3986;DHT22;2007;48.750;9.278;2022-12-20T16:34:48;13.60;50.80
3986;DHT22;2007;48.750;9.278;2022-12-20T16:37:17;13.60;50.80
3986;DHT22;2007;48.750;9.278;2022-12-20T16:39:45;13.60;50.80
3986;DHT22;2007;48.750;9.278;2022-12-20T16:42:13;13.60;50.80
3986;DHT22;2007;48.750;9.278;2022-12-20T16:44:44;13.60;50.80
3986;DHT22;2007;48.750;9.278;2022-12-20T16:47:13;13.60;50.80
3986;DHT22;2007;48.750;9.278;2022-12-20T16:49:41;13.60;50.80
3986;DHT22;2007;48.750;9.278;2022-12-20T16:52:19;13.60;50.80
3986;DHT22;2007;48.750;9.278;2022-12-20T16:54:47;13.60;50.80